Time;durP1;ratioP1;P1;durP2;ratioP2;P2;SDS_P1;SDS_P2;PMS_P1;PMS_P2;Temp;Humidity;BMP_temperature;BMP_pressure;BME280_temperature;BME280_humidity;BME280_pressure;Samples;Min_cycle;Max_cycle;Signal;HPM_P1;HPM_P2
2022/03/28 00:01:53;;;;;;;0.52;0.10;;;17.90;42.60;;;;;;5136300;27;20042;-68
2022/03/28 00:04:19;;;;;;;0.63;0.15;;;18.00;42.10;;;;;;5135400;27;20046;-72
2022/03/28 00:06:44;;;;;;;1.05;0.10;;;18.20;41.90;;;;;;5136399;27;20403;-69
2022/03/28 00:09:10;;;;;;;0.40;0.10;;;18.30;41.70;;;;;;5154847;27;20113;-71
2022/03/28 00:11:36;;;;;;;0.63;0.13;;;18.40;41.50;;;;;;5136060;27;20074;-72
2022/03/28 00:14:03;;;;;;;0.98;0.20;;;18.40;41.40;;;;;;5136469;27;20049;-71
2022/03/28 00:16:29;;;;;;;0.63;0.20;;;18.40;41.40;;;;;;5135904;27;20047;-71
2022/03/28 00:18:55;;;;;;;0.98;0.20;;;18.40;41.30;;;;;;5135984;27;20121;-69
2022/03/28 00:21:21;;;;;;;0.98;0.20;;;18.40;41.40;;;;;;5144255;27;20143;-70
2022/03/28 00:23:47;;;;;;;0.52;0.25;;;18.30;41.40;;;;;;5132493;27;20046;-72
2022/03/28 00:26:15;;;;;;;0.50;0.13;;;18.20;41.40;;;;;;5132378;27;20043;-68
2022/03/28 00:28:41;;;;;;;0.40;0.20;;;18.10;41.50;;;;;;5132309;27;20046;-73
2022/03/28 00:31:07;;;;;;;0.80;0.20;;;18.10;41.60;;;;;;5132565;27;20125;-73
2022/03/28 00:33:32;;;;;;;0.40;0.13;;;17.90;41.70;;;;;;5132203;27;20465;-72
2022/03/28 00:35:58;;;;;;;0.47;0.22;;;17.90;41.80;;;;;;5132174;27;20039;-73
2022/03/28 00:38:24;;;;;;;0.90;0.28;;;17.80;41.90;;;;;;5133417;27;20042;-73
2022/03/28 00:40:49;;;;;;;0.30;0.10;;;17.70;42.10;;;;;;5132054;27;20035;-69
2022/03/28 00:43:15;;;;;;;0.88;0.10;;;17.60;42.30;;;;;;5132338;27;20049;-72
2022/03/28 00:45:42;;;;;;;0.80;0.20;;;17.50;42.50;;;;;;5133393;27;20042;-72
2022/03/28 00:48:09;;;;;;;0.60;0.20;;;17.40;42.70;;;;;;5132309;27;20033;-71
2022/03/28 00:50:36;;;;;;;0.88;0.20;;;17.30;42.70;;;;;;5132225;27;20413;-73
2022/03/28 00:53:04;;;;;;;0.40;0.20;;;17.30;42.90;;;;;;5131872;27;20505;-69
2022/03/28 00:55:30;;;;;;;0.77;0.47;;;17.20;43.00;;;;;;5132283;27;20572;-72
2022/03/28 00:57:56;;;;;;;0.65;0.20;;;17.10;43.10;;;;;;5133319;27;20050;-71
2022/03/28 01:00:22;;;;;;;0.55;0.17;;;17.10;43.20;;;;;;5132023;27;20039;-71
2022/03/28 01:02:48;;;;;;;0.30;0.10;;;17.10;43.30;;;;;;5131785;27;20529;-71
2022/03/28 01:05:14;;;;;;;0.40;0.20;;;17.10;43.30;;;;;;5133063;27;20042;-69
2022/03/28 01:07:43;;;;;;;1.02;0.10;;;17.00;43.30;;;;;;5132018;27;20043;-71
2022/03/28 01:10:10;;;;;;;0.47;0.15;;;17.10;43.30;;;;;;5135249;27;20481;-68
2022/03/28 01:12:42;;;;;;;0.35;0.10;;;17.20;43.40;;;;;;5135064;27;20043;-73
2022/03/28 01:15:10;;;;;;;0.40;0.20;;;17.10;43.20;;;;;;5135180;27;20508;-69
2022/03/28 01:18:11;;;;;;;1.20;0.15;;;17.20;43.20;;;;;;5135380;27;20087;-72
2022/03/28 01:20:25;;;;;;;0.45;0.13;;;17.20;43.20;;;;;;5151646;27;20046;-72
2022/03/28 01:22:50;;;;;;;0.30;0.10;;;17.30;43.20;;;;;;5127530;28;20093;-69
2022/03/28 01:25:21;;;;;;;0.40;0.20;;;17.20;43.00;;;;;;5124323;28;20035;-72
2022/03/28 01:27:47;;;;;;;1.25;0.10;;;17.30;43.10;;;;;;5131845;28;20035;-71
2022/03/28 01:30:13;;;;;;;0.50;0.10;;;17.20;43.00;;;;;;5131435;28;20495;-72
2022/03/28 01:32:38;;;;;;;0.43;0.10;;;17.30;43.10;;;;;;5131498;28;20050;-69
2022/03/28 01:35:05;;;;;;;0.50;0.10;;;17.30;43.10;;;;;;5131644;28;20116;-72
2022/03/28 01:37:34;;;;;;;0.25;0.10;;;17.20;43.00;;;;;;5131808;28;20123;-72
2022/03/28 01:40:01;;;;;;;0.20;0.10;;;17.30;43.10;;;;;;5131609;28;20047;-69
2022/03/28 01:42:29;;;;;;;0.65;0.10;;;17.30;43.10;;;;;;5131707;28;20043;-69
2022/03/28 01:44:55;;;;;;;0.40;0.10;;;17.20;43.10;;;;;;5131434;28;20448;-72
2022/03/28 01:47:20;;;;;;;0.40;0.10;;;17.20;43.10;;;;;;5132588;28;20046;-72
2022/03/28 01:49:46;;;;;;;0.20;0.10;;;17.20;43.10;;;;;;5131560;28;20039;-70
2022/03/28 01:52:12;;;;;;;0.40;0.13;;;17.20;43.10;;;;;;5131525;28;20095;-72
2022/03/28 01:54:37;;;;;;;0.30;0.10;;;17.20;43.10;;;;;;5131301;28;20394;-71
2022/03/28 01:57:08;;;;;;;0.10;0.00;;;17.20;43.10;;;;;;5132639;28;20104;-71
2022/03/28 01:59:34;;;;;;;0.40;0.10;;;17.10;43.10;;;;;;5131495;28;20501;-71
2022/03/28 02:02:00;;;;;;;0.30;0.10;;;17.20;43.20;;;;;;5131226;28;20054;-72
2022/03/28 02:04:25;;;;;;;0.30;0.03;;;17.10;43.10;;;;;;5132361;28;20561;-72
2022/03/28 02:06:54;;;;;;;0.20;0.10;;;17.00;43.20;;;;;;5131494;28;20039;-69
2022/03/28 02:09:19;;;;;;;0.20;0.10;;;17.10;43.30;;;;;;5131215;28;20116;-72
2022/03/28 02:11:45;;;;;;;0.28;0.10;;;17.00;43.30;;;;;;5131376;28;20077;-73
2022/03/28 02:14:11;;;;;;;0.32;0.10;;;17.00;43.30;;;;;;5131156;28;20054;-72
2022/03/28 02:16:36;;;;;;;0.45;0.20;;;17.00;43.40;;;;;;5130938;28;20042;-71
2022/03/28 02:19:02;;;;;;;0.30;0.10;;;17.00;43.40;;;;;;5131071;28;20130;-71
2022/03/28 02:21:30;;;;;;;0.40;0.10;;;17.00;43.50;;;;;;5130689;27;20134;-71
2022/03/28 02:23:56;;;;;;;0.32;0.10;;;17.00;43.50;;;;;;5131061;28;20126;-71
2022/03/28 02:26:21;;;;;;;0.35;0.10;;;17.00;43.50;;;;;;5130985;28;20118;-68
2022/03/28 02:28:47;;;;;;;0.32;0.10;;;17.00;43.60;;;;;;5133592;27;20118;-72
2022/03/28 02:31:13;;;;;;;0.20;0.10;;;17.00;43.60;;;;;;5135984;27;20044;-72
2022/03/28 02:33:39;;;;;;;0.20;0.10;;;16.90;43.50;;;;;;5134859;27;20038;-72
2022/03/28 02:36:05;;;;;;;0.20;0.03;;;16.90;43.50;;;;;;5134595;27;20448;-69
2022/03/28 02:38:34;;;;;;;0.20;0.10;;;16.90;43.50;;;;;;5130894;27;20040;-71
2022/03/28 02:41:00;;;;;;;0.30;0.10;;;16.80;43.50;;;;;;5114024;28;20372;-72
2022/03/28 02:43:25;;;;;;;0.20;0.10;;;17.00;43.60;;;;;;5115250;28;20093;-71
2022/03/28 02:45:51;;;;;;;0.30;0.10;;;16.90;43.50;;;;;;5131280;27;20031;-71
2022/03/28 02:48:17;;;;;;;0.60;0.20;;;16.90;43.50;;;;;;5114979;28;20386;-72
2022/03/28 02:50:42;;;;;;;0.30;0.10;;;16.90;43.50;;;;;;5115275;28;20405;-70
2022/03/28 02:53:08;;;;;;;0.25;0.10;;;16.90;43.60;;;;;;5115116;28;20527;-72
2022/03/28 02:55:34;;;;;;;0.50;0.15;;;16.90;43.70;;;;;;5113757;28;20040;-71
2022/03/28 02:57:59;;;;;;;0.32;0.10;;;16.90;43.80;;;;;;5115000;28;20032;-72
2022/03/28 03:00:25;;;;;;;0.60;0.17;;;16.90;43.80;;;;;;5114794;28;20051;-71
2022/03/28 03:02:51;;;;;;;1.05;0.10;;;16.80;43.80;;;;;;5130628;27;20444;-72
2022/03/28 03:05:17;;;;;;;0.20;0.08;;;16.80;43.90;;;;;;5114721;28;20050;-72
2022/03/28 03:07:43;;;;;;;0.30;0.13;;;16.80;43.80;;;;;;5113436;28;20040;-72
2022/03/28 03:10:09;;;;;;;0.32;0.10;;;16.80;43.90;;;;;;5114761;28;20124;-72
2022/03/28 03:12:35;;;;;;;0.20;0.10;;;16.80;43.90;;;;;;5113620;28;20079;-68
2022/03/28 03:15:00;;;;;;;0.15;0.10;;;16.70;43.90;;;;;;5113266;28;20560;-71
2022/03/28 03:17:26;;;;;;;0.10;0.03;;;16.70;43.90;;;;;;5096248;28;20126;-68
2022/03/28 03:19:54;;;;;;;0.20;0.10;;;16.70;43.90;;;;;;5113350;28;20047;-72
2022/03/28 03:22:20;;;;;;;0.40;0.10;;;16.70;43.90;;;;;;5132090;27;20061;-72
2022/03/28 03:24:46;;;;;;;0.57;0.30;;;16.70;44.00;;;;;;5134978;27;20045;-72
2022/03/28 03:27:12;;;;;;;0.65;0.20;;;16.70;44.00;;;;;;5133541;27;20028;-72
2022/03/28 03:29:38;;;;;;;0.70;0.30;;;16.70;44.10;;;;;;5134933;27;20032;-72
2022/03/28 03:32:07;;;;;;;0.57;0.20;;;16.60;44.10;;;;;;5116330;27;20074;-72
2022/03/28 03:34:34;;;;;;;0.85;0.40;;;16.60;44.20;;;;;;5134703;27;20482;-72
2022/03/28 03:37:00;;;;;;;0.60;0.20;;;16.60;44.20;;;;;;5133498;27;20046;-72
2022/03/28 03:39:29;;;;;;;0.68;0.30;;;16.60;44.20;;;;;;5116173;27;20509;-72
2022/03/28 03:41:55;;;;;;;0.57;0.30;;;16.60;44.30;;;;;;5116161;27;20118;-72
2022/03/28 03:44:21;;;;;;;0.57;0.20;;;16.60;44.30;;;;;;5116331;27;20041;-72
2022/03/28 03:46:47;;;;;;;0.52;0.30;;;16.50;44.40;;;;;;5132296;27;20389;-72
2022/03/28 03:49:13;;;;;;;1.60;0.32;;;16.50;44.40;;;;;;5155106;27;20030;-72
2022/03/28 03:51:39;;;;;;;0.45;0.20;;;16.60;44.40;;;;;;5153870;27;20042;-72
2022/03/28 03:54:05;;;;;;;0.50;0.22;;;16.50;44.40;;;;;;5154000;27;20039;-72
2022/03/28 03:56:31;;;;;;;0.47;0.20;;;16.50;44.30;;;;;;5154029;27;20164;-69
2022/03/28 03:58:57;;;;;;;0.63;0.17;;;16.60;44.40;;;;;;5153663;27;20425;-72
2022/03/28 04:01:26;;;;;;;0.25;0.10;;;16.50;44.30;;;;;;5153618;27;20039;-68
2022/03/28 04:03:52;;;;;;;0.57;0.10;;;16.50;44.30;;;;;;5153776;27;20035;-72
2022/03/28 04:06:18;;;;;;;0.30;0.10;;;16.50;44.30;;;;;;5154841;27;20038;-71
2022/03/28 04:08:43;;;;;;;0.20;0.10;;;16.60;44.30;;;;;;5154906;27;20042;-69
2022/03/28 04:11:09;;;;;;;0.32;0.13;;;16.50;44.30;;;;;;5153537;27;20125;-69
2022/03/28 04:13:38;;;;;;;0.52;0.10;;;16.60;44.30;;;;;;5153372;27;20099;-71
2022/03/28 04:16:04;;;;;;;0.40;0.20;;;16.50;44.30;;;;;;5153407;27;20038;-72
2022/03/28 04:18:30;;;;;;;1.00;0.20;;;16.50;44.20;;;;;;5154511;27;20038;-72
2022/03/28 04:20:55;;;;;;;0.60;0.13;;;16.60;44.20;;;;;;5153070;27;20099;-72
2022/03/28 04:23:24;;;;;;;0.30;0.10;;;16.60;44.20;;;;;;5153299;27;20053;-68
2022/03/28 04:25:50;;;;;;;0.90;0.30;;;16.60;44.20;;;;;;5153248;27;20053;-71
2022/03/28 04:28:15;;;;;;;0.30;0.10;;;16.60;44.20;;;;;;5154498;27;20035;-72
2022/03/28 04:30:41;;;;;;;0.93;0.20;;;16.60;44.20;;;;;;5153106;27;20027;-72
2022/03/28 04:33:09;;;;;;;0.30;0.10;;;16.60;44.20;;;;;;5153278;27;20087;-72
2022/03/28 04:35:35;;;;;;;0.40;0.20;;;16.60;44.30;;;;;;5152872;27;20042;-71
2022/03/28 04:38:04;;;;;;;0.47;0.20;;;16.60;44.30;;;;;;5153262;27;20064;-70
2022/03/28 04:40:30;;;;;;;0.47;0.20;;;16.50;44.30;;;;;;5154236;27;20062;-72
2022/03/28 04:42:55;;;;;;;0.32;0.10;;;16.60;44.30;;;;;;5152927;27;20035;-71
2022/03/28 04:45:21;;;;;;;0.55;0.28;;;16.50;44.30;;;;;;5153114;27;20074;-71
2022/03/28 04:47:49;;;;;;;0.20;0.10;;;16.60;44.40;;;;;;5152802;27;20027;-71
2022/03/28 04:50:15;;;;;;;0.30;0.10;;;16.50;44.40;;;;;;5152499;27;20038;-71
2022/03/28 04:52:41;;;;;;;0.30;0.10;;;16.60;44.40;;;;;;5152709;27;20529;-72
2022/03/28 04:55:07;;;;;;;0.32;0.10;;;16.50;44.30;;;;;;5152681;27;20053;-71
2022/03/28 04:57:33;;;;;;;0.52;0.10;;;16.60;44.30;;;;;;5152734;27;20042;-71
2022/03/28 04:59:59;;;;;;;0.20;0.10;;;16.60;44.40;;;;;;5152504;27;20053;-71
2022/03/28 05:02:24;;;;;;;0.50;0.22;;;16.60;44.30;;;;;;5152576;27;20035;-72
2022/03/28 05:04:50;;;;;;;0.57;0.28;;;16.50;44.30;;;;;;5135240;27;20039;-70
2022/03/28 05:07:24;;;;;;;0.70;0.47;;;16.50;44.40;;;;;;5152510;27;20074;-70
2022/03/28 05:09:50;;;;;;;0.70;0.30;;;16.50;44.50;;;;;;5152565;27;20038;-71
2022/03/28 05:12:15;;;;;;;0.90;0.30;;;16.50;44.50;;;;;;5153766;27;20079;-71
2022/03/28 05:14:41;;;;;;;0.80;0.50;;;16.50;44.60;;;;;;5135494;27;20370;-73
2022/03/28 05:17:07;;;;;;;1.08;0.60;;;16.50;44.60;;;;;;5152336;27;20038;-72
2022/03/28 05:19:33;;;;;;;0.55;0.30;;;16.50;44.60;;;;;;5134819;27;20042;-72
2022/03/28 05:21:58;;;;;;;0.80;0.40;;;16.40;44.60;;;;;;5152164;27;20062;-72
2022/03/28 05:24:24;;;;;;;0.88;0.50;;;16.50;44.70;;;;;;5152273;27;20054;-72
2022/03/28 05:26:49;;;;;;;0.82;0.50;;;16.50;44.70;;;;;;5152175;27;20045;-72
2022/03/28 05:29:15;;;;;;;0.70;0.40;;;16.40;44.80;;;;;;5147561;27;20090;-72
2022/03/28 05:31:44;;;;;;;0.50;0.10;;;16.40;44.80;;;;;;5134835;27;20035;-68
2022/03/28 05:34:10;;;;;;;0.68;0.40;;;16.40;45.80;;;;;;5140762;27;20155;-68
2022/03/28 05:36:36;;;;;;;2.63;0.50;;;16.50;46.40;;;;;;5142032;27;20035;-68
2022/03/28 05:39:02;;;;;;;1.30;0.93;;;16.60;46.90;;;;;;5133632;27;20050;-68
2022/03/28 05:41:28;;;;;;;0.95;0.50;;;16.50;47.00;;;;;;5132235;27;20067;-67
2022/03/28 05:43:53;;;;;;;1.10;0.45;;;16.60;47.30;;;;;;5149530;27;20053;-68
2022/03/28 05:46:19;;;;;;;0.80;0.40;;;16.60;47.40;;;;;;5141840;27;20041;-67
2022/03/28 05:48:45;;;;;;;1.08;0.60;;;16.60;47.40;;;;;;5142965;27;20176;-67
2022/03/28 05:51:10;;;;;;;1.50;0.30;;;16.70;47.50;;;;;;5148765;27;20050;-68
2022/03/28 05:53:39;;;;;;;0.95;0.52;;;16.80;47.80;;;;;;5160265;27;20118;-69
2022/03/28 05:56:08;;;;;;;1.13;0.70;;;16.80;47.70;;;;;;5134572;27;20074;-72
2022/03/28 05:58:34;;;;;;;2.03;0.70;;;16.80;47.60;;;;;;5142808;27;20039;-69
2022/03/28 06:01:00;;;;;;;1.83;0.55;;;16.80;47.50;;;;;;5133435;27;20041;-69
2022/03/28 06:03:27;;;;;;;1.15;0.70;;;16.80;47.70;;;;;;5133724;27;20039;-68
2022/03/28 06:05:56;;;;;;;1.20;0.55;;;16.80;47.80;;;;;;5147429;27;20546;-67
2022/03/28 06:08:21;;;;;;;1.95;0.88;;;16.80;47.90;;;;;;5154700;27;20045;-68
2022/03/28 06:10:48;;;;;;;1.60;0.90;;;16.80;47.80;;;;;;5141369;27;20125;-69
2022/03/28 06:13:14;;;;;;;1.70;0.63;;;16.80;47.90;;;;;;5137173;27;20092;-69
2022/03/28 06:15:39;;;;;;;1.90;0.80;;;16.80;47.80;;;;;;5137521;27;20038;-69
2022/03/28 06:18:06;;;;;;;1.80;1.40;;;16.80;47.80;;;;;;5127447;27;20050;-69
2022/03/28 06:20:32;;;;;;;1.90;1.20;;;16.80;47.80;;;;;;5147502;27;20509;-71
2022/03/28 06:23:00;;;;;;;1.65;1.20;;;16.80;47.80;;;;;;5154099;27;20050;-71
2022/03/28 06:25:26;;;;;;;1.98;1.20;;;16.80;47.50;;;;;;5122399;27;20077;-68
2022/03/28 06:27:52;;;;;;;1.17;0.70;;;16.80;47.40;;;;;;5126313;27;20043;-68
2022/03/28 06:30:18;;;;;;;2.67;0.70;;;16.80;47.80;;;;;;5123254;27;20035;-69
2022/03/28 06:32:43;;;;;;;0.60;0.40;;;16.80;48.00;;;;;;5131466;27;20066;-68
2022/03/28 06:35:10;;;;;;;0.63;0.30;;;16.90;48.10;;;;;;5122392;27;20032;-68
2022/03/28 06:37:36;;;;;;;1.40;0.60;;;16.90;48.20;;;;;;5119514;27;20398;-68
2022/03/28 06:40:04;;;;;;;0.77;0.38;;;17.00;49.30;;;;;;5122160;27;20050;-68
2022/03/28 06:42:32;;;;;;;0.75;0.40;;;17.10;48.50;;;;;;5116465;27;20039;-68
2022/03/28 06:47:52;;;;;;;0.80;0.45;;;17.10;48.70;;;;;;5113435;27;20116;-66
2022/03/28 06:50:20;;;;;;;3.28;1.00;;;17.10;48.50;;;;;;5120120;27;20036;-66
2022/03/28 06:52:46;;;;;;;2.67;1.10;;;17.20;48.80;;;;;;5112096;27;20046;-66
2022/03/28 06:55:12;;;;;;;1.98;0.90;;;17.10;48.90;;;;;;5096389;27;20042;-66
2022/03/28 06:57:38;;;;;;;3.50;1.13;;;17.20;49.10;;;;;;5109413;27;20122;-66
2022/03/28 07:00:06;;;;;;;2.90;1.20;;;17.20;49.30;;;;;;5107581;27;20084;-67
2022/03/28 07:02:31;;;;;;;3.05;1.27;;;17.20;49.50;;;;;;5117946;27;20050;-67
2022/03/28 07:05:00;;;;;;;2.65;1.33;;;17.10;49.50;;;;;;5108595;27;20031;-69
2022/03/28 07:07:26;;;;;;;4.18;1.90;;;17.10;49.40;;;;;;5117862;27;20050;-68
2022/03/28 07:09:54;;;;;;;3.00;1.50;;;17.20;49.60;;;;;;5112242;27;20066;-68
2022/03/28 07:12:20;;;;;;;5.05;1.63;;;17.20;49.90;;;;;;5115666;27;20503;-68
2022/03/28 07:14:46;;;;;;;5.20;2.47;;;17.20;49.90;;;;;;5111857;27;20181;-67
2022/03/28 07:17:12;;;;;;;2.78;1.30;;;17.20;49.80;;;;;;5120145;27;20038;-68
2022/03/28 07:19:37;;;;;;;3.60;0.90;;;17.20;49.90;;;;;;5107875;27;20031;-69
2022/03/28 07:22:04;;;;;;;2.53;1.00;;;17.20;50.20;;;;;;5108868;27;20050;-70
2022/03/28 07:24:30;;;;;;;3.65;0.90;;;17.20;50.60;;;;;;5120457;27;20047;-69
2022/03/28 07:26:56;;;;;;;1.95;0.90;;;17.30;50.80;;;;;;5114792;27;20040;-75
2022/03/28 07:29:22;;;;;;;3.53;1.10;;;17.30;51.10;;;;;;5112567;27;20093;-73
2022/03/28 07:31:48;;;;;;;2.30;1.27;;;17.30;51.20;;;;;;5122339;27;20075;-76
2022/03/28 07:34:45;;;;;;;5.65;1.60;;;17.30;51.20;;;;;;5112190;27;20075;-75
2022/03/28 07:37:03;;;;;;;4.38;1.17;;;17.40;51.20;;;;;;5114156;27;20066;-76
2022/03/28 07:39:30;;;;;;;4.47;1.42;;;17.40;51.00;;;;;;5122695;27;20051;-73
2022/03/28 07:41:56;;;;;;;2.92;1.55;;;17.40;50.80;;;;;;5112375;27;20415;-73
2022/03/28 07:44:22;;;;;;;4.60;1.60;;;17.40;50.40;;;;;;5115427;27;20035;-73
2022/03/28 07:46:48;;;;;;;4.32;1.75;;;17.30;50.10;;;;;;5113016;27;20043;-72
2022/03/28 07:49:17;;;;;;;2.67;1.42;;;17.30;50.30;;;;;;5119332;27;20035;-72
2022/03/28 07:51:43;;;;;;;5.43;1.85;;;17.30;50.10;;;;;;5125233;27;20073;-69
2022/03/28 07:54:09;;;;;;;3.65;2.10;;;17.20;49.80;;;;;;5103602;27;20051;-72
2022/03/28 07:56:35;;;;;;;2.75;1.75;;;17.20;49.70;;;;;;5115791;27;20040;-73
2022/03/28 07:59:01;;;;;;;6.70;2.38;;;17.20;49.60;;;;;;5114161;27;20054;-70
2022/03/28 08:01:27;;;;;;;4.78;2.53;;;17.20;49.40;;;;;;5113360;27;20051;-69
2022/03/28 08:03:54;;;;;;;4.20;2.65;;;17.10;49.30;;;;;;5116106;27;20763;-71
2022/03/28 08:06:20;;;;;;;3.88;2.00;;;17.10;49.20;;;;;;5124454;27;20357;-71
2022/03/28 08:08:46;;;;;;;3.90;2.38;;;17.10;49.10;;;;;;5115277;27;20064;-72
2022/03/28 08:11:12;;;;;;;2.65;1.88;;;17.10;49.00;;;;;;5121882;27;20068;-67
2022/03/28 08:13:38;;;;;;;3.85;1.95;;;17.00;48.80;;;;;;5115844;27;20115;-71
2022/03/28 08:16:04;;;;;;;4.07;2.22;;;17.00;48.80;;;;;;5112993;27;20046;-73
2022/03/28 08:18:31;;;;;;;5.70;2.72;;;17.00;48.80;;;;;;5121141;27;20040;-73
2022/03/28 08:20:57;;;;;;;4.82;2.95;;;17.00;48.80;;;;;;5123590;27;20097;-73
2022/03/28 08:23:23;;;;;;;4.80;1.85;;;17.00;48.70;;;;;;5111745;27;20059;-73
2022/03/28 08:25:50;;;;;;;4.10;2.17;;;17.00;48.70;;;;;;5114606;27;20042;-74
2022/03/28 08:28:16;;;;;;;3.50;2.42;;;17.00;48.60;;;;;;5115710;27;20042;-74
2022/03/28 08:30:42;;;;;;;5.47;2.45;;;17.00;48.50;;;;;;5124712;27;20031;-73
2022/03/28 08:33:09;;;;;;;5.15;1.98;;;16.90;48.40;;;;;;5123153;27;20044;-74
2022/03/28 08:35:35;;;;;;;3.38;2.20;;;17.00;48.40;;;;;;5116295;27;20062;-71
2022/03/28 08:38:00;;;;;;;3.13;1.80;;;17.00;48.30;;;;;;5115109;27;20170;-74
2022/03/28 08:40:29;;;;;;;2.55;1.55;;;17.00;48.20;;;;;;5114002;27;20119;-73
2022/03/28 08:42:55;;;;;;;5.10;1.50;;;17.00;48.20;;;;;;5113294;27;20104;-73
2022/03/28 08:45:21;;;;;;;3.15;1.40;;;17.00;48.10;;;;;;5121903;27;20092;-74
2022/03/28 08:47:48;;;;;;;3.08;1.73;;;17.00;48.10;;;;;;5119310;27;20035;-72
2022/03/28 08:50:16;;;;;;;3.38;2.08;;;17.00;48.00;;;;;;5111966;27;20039;-73
2022/03/28 08:52:43;;;;;;;3.25;1.70;;;17.00;47.90;;;;;;5121699;27;20490;-73
2022/03/28 08:55:11;;;;;;;3.50;2.17;;;17.00;47.90;;;;;;5121535;27;20115;-74
2022/03/28 08:57:37;;;;;;;2.70;1.67;;;17.00;47.90;;;;;;5115606;27;20892;-73
2022/03/28 09:00:05;;;;;;;4.10;1.90;;;17.00;47.80;;;;;;5114470;27;20210;-73
2022/03/28 09:02:39;;;;;;;3.35;2.05;;;17.00;47.80;;;;;;5118709;27;20040;-71
2022/03/28 09:05:05;;;;;;;4.88;1.83;;;17.00;47.10;;;;;;5114353;27;20059;-74
2022/03/28 09:07:31;;;;;;;2.45;1.52;;;17.00;47.60;;;;;;5117060;27;20203;-72
2022/03/28 09:09:59;;;;;;;2.72;1.65;;;17.00;47.60;;;;;;5111836;27;20122;-65
2022/03/28 09:12:26;;;;;;;3.95;2.10;;;17.00;47.60;;;;;;5121110;27;20047;-73
2022/03/28 09:15:01;;;;;;;5.72;2.08;;;17.00;47.50;;;;;;5106580;27;20119;-73
2022/03/28 09:17:27;;;;;;;4.03;2.20;;;16.90;47.40;;;;;;5107789;27;20035;-72
2022/03/28 09:19:57;;;;;;;2.60;1.17;;;16.90;47.40;;;;;;5120272;27;20713;-74
2022/03/28 09:22:29;;;;;;;2.92;1.67;;;17.00;47.40;;;;;;5116453;27;20470;-72
2022/03/28 09:25:00;;;;;;;3.90;1.80;;;16.90;47.30;;;;;;5111897;28;20406;-67
2022/03/28 09:27:29;;;;;;;1.77;1.35;;;17.00;47.30;;;;;;5112846;27;20055;-73
2022/03/28 09:38:02;;;;;;;2.88;1.33;;;17.00;47.10;;;;;;5118651;27;1165032;-70
2022/03/28 09:43:16;;;;;;;1.95;1.75;;;17.00;46.90;;;;;;5113431;27;1164280;-69
2022/03/28 09:45:45;;;;;;;2.35;1.58;;;17.00;46.80;;;;;;5133361;27;20401;-69
2022/03/28 09:48:12;;;;;;;2.63;1.75;;;17.00;46.80;;;;;;5129632;27;20049;-66
2022/03/28 09:53:20;;;;;;;2.45;1.25;;;17.00;46.70;;;;;;5116118;27;1171063;-68
2022/03/28 09:56:04;;;;;;;2.00;1.33;;;17.10;46.70;;;;;;5118283;27;20494;-69
2022/03/28 09:59:00;;;;;;;2.17;1.05;;;17.10;46.60;;;;;;5121161;27;20050;-69
2022/03/28 10:04:08;;;;;;;1.60;1.10;;;17.10;46.60;;;;;;5079017;27;20429;-69
2022/03/28 10:06:35;;;;;;;2.03;1.20;;;17.10;46.50;;;;;;5079945;28;20046;-69
2022/03/28 10:09:01;;;;;;;2.35;1.20;;;17.10;46.40;;;;;;5060382;28;20048;-70
2022/03/28 10:11:30;;;;;;;1.60;1.00;;;17.20;46.40;;;;;;5057516;28;20044;-70
2022/03/28 10:13:56;;;;;;;2.00;0.65;;;17.20;46.40;;;;;;5074842;28;20496;-70
2022/03/28 10:16:22;;;;;;;1.30;0.55;;;17.20;46.30;;;;;;5077067;28;20859;-70
2022/03/28 10:18:50;;;;;;;2.33;0.82;;;17.20;46.20;;;;;;5067270;28;20098;-70
2022/03/28 10:24:04;;;;;;;1.85;0.70;;;17.20;46.20;;;;;;5123055;27;20450;-70
2022/03/28 10:26:33;;;;;;;1.70;0.80;;;17.20;46.10;;;;;;5109977;28;20083;-70
2022/03/28 10:29:10;;;;;;;1.42;0.70;;;17.20;46.10;;;;;;5115600;28;20062;-69
2022/03/28 10:34:53;;;;;;;2.47;0.80;;;17.30;46.10;;;;;;5075922;27;1865038;-67
2022/03/28 10:37:36;;;;;;;1.70;1.08;;;17.30;46.00;;;;;;5137921;27;20047;-69
2022/03/28 10:40:24;;;;;;;1.65;1.10;;;17.30;46.10;;;;;;5121934;27;20053;-70
2022/03/28 10:48:17;;;;;;;2.45;0.50;;;17.40;46.80;;;;;;5060901;27;20968;-69
2022/03/28 10:50:48;;;;;;;2.88;0.70;;;17.40;45.90;;;;;;5071039;28;20036;-69
2022/03/28 10:56:00;;;;;;;1.23;0.73;;;17.40;45.80;;;;;;5080254;27;20411;-68
2022/03/28 11:10:03;;;;;;;2.72;0.75;;;17.50;45.60;;;;;;5070594;28;20778;-68
2022/03/28 11:12:44;;;;;;;1.02;0.70;;;17.40;45.60;;;;;;5055478;28;20048;-69
2022/03/28 11:15:19;;;;;;;1.25;0.63;;;17.40;45.50;;;;;;5071902;28;20040;-70
2022/03/28 11:17:57;;;;;;;1.52;0.88;;;17.50;45.60;;;;;;5052970;28;20049;-70
2022/03/28 11:20:24;;;;;;;1.73;0.70;;;17.50;45.50;;;;;;5059377;28;20052;-70
2022/03/28 11:28:18;;;;;;;1.33;0.73;;;17.50;45.50;;;;;;5094536;27;20903;-69
2022/03/28 11:36:12;;;;;;;2.08;0.85;;;17.60;45.20;;;;;;5091453;27;20463;-70
2022/03/28 11:38:41;;;;;;;2.30;0.77;;;17.60;45.10;;;;;;5088527;28;20058;-68
2022/03/28 11:41:09;;;;;;;0.90;0.40;;;17.70;45.10;;;;;;5091591;28;20119;-69
2022/03/28 11:43:41;;;;;;;1.75;0.70;;;17.70;45.10;;;;;;5093913;28;20036;-70
2022/03/28 11:46:13;;;;;;;1.70;0.80;;;17.70;45.00;;;;;;5089096;28;20126;-71
2022/03/28 11:51:36;;;;;;;2.83;1.27;;;17.60;45.00;;;;;;5106976;27;20815;-69
2022/03/28 11:54:11;;;;;;;1.20;0.70;;;17.70;45.00;;;;;;5112097;27;20065;-71
2022/03/28 11:59:26;;;;;;;1.70;0.80;;;17.70;44.80;;;;;;5107064;27;20112;-71
2022/03/28 12:01:57;;;;;;;1.23;0.70;;;17.80;44.80;;;;;;5107070;27;20047;-68
2022/03/28 12:04:23;;;;;;;1.30;0.60;;;17.80;44.80;;;;;;5124518;27;20051;-68
2022/03/28 12:06:51;;;;;;;1.15;0.43;;;17.80;44.80;;;;;;5106290;27;20043;-70
2022/03/28 12:09:18;;;;;;;2.25;0.55;;;17.80;44.70;;;;;;5119624;27;20051;-66
2022/03/28 12:11:48;;;;;;;0.82;0.40;;;17.80;44.70;;;;;;5098583;27;20096;-69
2022/03/28 12:14:14;;;;;;;;;;;17.80;44.70;;;;;;5122149;27;20594;-69
2022/03/28 12:16:57;;;;;;;1.13;0.50;;;17.80;44.60;;;;;;5122984;27;19941;-68
2022/03/28 12:19:26;;;;;;;0.85;0.38;;;17.80;44.60;;;;;;5106478;27;20049;-70
2022/03/28 12:21:54;;;;;;;1.80;0.63;;;17.80;44.60;;;;;;5108841;27;20535;-70
2022/03/28 12:24:22;;;;;;;1.65;0.30;;;17.80;44.70;;;;;;5102443;27;20042;-71
2022/03/28 12:26:51;;;;;;;1.90;0.35;;;17.80;44.80;;;;;;5110755;27;20124;-68
2022/03/28 12:29:17;;;;;;;1.10;0.30;;;17.90;45.10;;;;;;5107184;27;20045;-69
2022/03/28 12:31:46;;;;;;;2.88;0.50;;;18.00;47.70;;;;;;5111402;27;20028;-69
2022/03/28 12:34:13;;;;;;;3.03;0.32;;;18.10;49.10;;;;;;5114385;27;20057;-70
2022/03/28 12:36:39;;;;;;;3.25;0.50;;;18.20;49.30;;;;;;5110002;27;20031;-68
2022/03/28 12:39:09;;;;;;;3.85;0.60;;;18.30;49.50;;;;;;5111861;27;20487;-69
2022/03/28 12:44:26;;;;;;;3.00;0.30;;;18.50;50.00;;;;;;5075874;27;20432;-68
2022/03/28 12:47:03;;;;;;;2.33;0.50;;;18.60;49.50;;;;;;5073207;28;20133;-67
2022/03/28 12:49:39;;;;;;;4.03;0.63;;;18.70;49.50;;;;;;5038774;28;20037;-67
2022/03/28 12:52:10;;;;;;;2.75;0.80;;;18.70;49.10;;;;;;5059251;28;20041;-66
2022/03/28 12:54:36;;;;;;;2.38;0.60;;;18.80;48.90;;;;;;5056904;28;20044;-69
2022/03/28 12:57:03;;;;;;;3.05;0.50;;;18.80;48.70;;;;;;5038324;28;20067;-69
2022/03/28 12:59:32;;;;;;;5.63;0.68;;;18.90;48.70;;;;;;5047777;28;20118;-69
2022/03/28 13:02:08;;;;;;;5.97;0.80;;;19.00;48.60;;;;;;5044758;28;20052;-71
2022/03/28 13:04:56;;;;;;;3.90;1.20;;;19.10;48.60;;;;;;5046896;28;20037;-71
2022/03/28 13:07:25;;;;;;;4.22;0.70;;;19.10;48.30;;;;;;5051939;28;20068;-73
2022/03/28 13:15:20;;;;;;;5.55;0.90;;;19.10;48.10;;;;;;5060183;28;20427;-72
2022/03/28 13:17:48;;;;;;;3.58;0.80;;;19.10;47.30;;;;;;5039031;28;20153;-72
2022/03/28 13:20:19;;;;;;;3.22;0.65;;;19.10;48.00;;;;;;5053735;28;20133;-77
2022/03/28 13:22:48;;;;;;;5.93;0.60;;;19.10;47.20;;;;;;5051853;28;20071;-73
2022/03/28 13:25:17;;;;;;;4.55;0.57;;;19.10;47.30;;;;;;5029389;28;20068;-71
2022/03/28 13:28:05;;;;;;;2.97;1.00;;;19.10;47.40;;;;;;5032939;28;20041;-72
2022/03/28 13:30:35;;;;;;;3.60;0.55;;;19.10;47.20;;;;;;5038366;28;20045;-76
2022/03/28 13:33:02;;;;;;;12.88;0.88;;;19.10;47.20;;;;;;5054152;28;20047;-75
2022/03/28 13:35:28;;;;;;;3.90;0.70;;;19.00;47.30;;;;;;5041560;28;20044;-70
2022/03/28 13:37:57;;;;;;;7.93;1.13;;;19.00;47.20;;;;;;5043150;28;20049;-70
2022/03/28 13:40:24;;;;;;;1.63;0.80;;;19.10;47.00;;;;;;5042311;28;20619;-69
2022/03/28 13:42:50;;;;;;;2.90;1.02;;;19.10;46.80;;;;;;5056068;28;20041;-69
2022/03/28 13:45:19;;;;;;;3.72;0.90;;;19.10;46.70;;;;;;5034155;28;20588;-75
2022/03/28 13:47:45;;;;;;;4.15;0.50;;;19.10;46.60;;;;;;5038547;28;20128;-74
2022/03/28 13:50:12;;;;;;;1.60;0.63;;;19.20;46.60;;;;;;5049322;28;20044;-69
2022/03/28 13:52:38;;;;;;;4.47;0.60;;;19.20;46.40;;;;;;5035283;28;20100;-71
2022/03/28 13:55:07;;;;;;;1.95;0.60;;;19.20;46.70;;;;;;5026181;28;20064;-75
2022/03/28 13:57:32;;;;;;;3.08;0.57;;;19.20;46.90;;;;;;5034279;28;20040;-76
2022/03/28 13:59:58;;;;;;;1.13;0.50;;;19.20;47.00;;;;;;5044431;28;20037;-78